sensor_id;sensor_type;location;lat;lon;timestamp;temperature;humidity
2967;DHT22;1493;51.496;7.210;2023-10-31T00:00:55;13.40;99.90
2967;DHT22;1493;51.496;7.210;2023-10-31T00:03:21;13.40;99.90
2967;DHT22;1493;51.496;7.210;2023-10-31T00:05:49;13.30;99.90
2967;DHT22;1493;51.496;7.210;2023-10-31T00:08:17;13.30;99.90
2967;DHT22;1493;51.496;7.210;2023-10-31T00:10:43;13.10;99.90
2967;DHT22;1493;51.496;7.210;2023-10-31T00:13:11;13.10;99.90
2967;DHT22;1493;51.496;7.210;2023-10-31T00:15:38;13.00;99.90
2967;DHT22;1493;51.496;7.210;2023-10-31T00:18:05;12.90;99.90
2967;DHT22;1493;51.496;7.210;2023-10-31T00:20:32;12.70;99.90
2967;DHT22;1493;51.496;7.210;2023-10-31T00:22:59;12.60;99.90
2967;DHT22;1493;51.496;7.210;2023-10-31T00:25:27;12.50;99.90
2967;DHT22;1493;51.496;7.210;2023-10-31T00:27:54;12.40;99.90
2967;DHT22;1493;51.496;7.210;2023-10-31T00:30:20;12.30;99.90
2967;DHT22;1493;51.496;7.210;2023-10-31T00:32:47;12.30;99.90
2967;DHT22;1493;51.496;7.210;2023-10-31T00:35:14;12.20;99.90
2967;DHT22;1493;51.496;7.210;2023-10-31T00:37:41;12.20;99.90
2967;DHT22;1493;51.496;7.210;2023-10-31T00:40:09;12.20;99.90
2967;DHT22;1493;51.496;7.210;2023-10-31T00:42:38;12.10;99.90
2967;DHT22;1493;51.496;7.210;2023-10-31T00:45:07;12.10;99.90
2967;DHT22;1493;51.496;7.210;2023-10-31T00:47:34;12.10;99.90
2967;DHT22;1493;51.496;7.210;2023-10-31T00:50:02;12.00;99.90
2967;DHT22;1493;51.496;7.210;2023-10-31T00:52:30;12.00;99.90
2967;DHT22;1493;51.496;7.210;2023-10-31T00:54:58;12.00;99.90
2967;DHT22;1493;51.496;7.210;2023-10-31T00:57:24;12.00;99.90
2967;DHT22;1493;51.496;7.210;2023-10-31T00:59:53;12.00;99.90
2967;DHT22;1493;51.496;7.210;2023-10-31T01:02:19;11.90;99.90
2967;DHT22;1493;51.496;7.210;2023-10-31T01:04:46;12.00;99.90
2967;DHT22;1493;51.496;7.210;2023-10-31T01:07:13;12.00;99.90
2967;DHT22;1493;51.496;7.210;2023-10-31T01:09:42;12.00;99.90
2967;DHT22;1493;51.496;7.210;2023-10-31T01:12:09;12.00;99.90
2967;DHT22;1493;51.496;7.210;2023-10-31T01:14:36;12.00;99.90
2967;DHT22;1493;51.496;7.210;2023-10-31T01:17:05;11.80;99.90
2967;DHT22;1493;51.496;7.210;2023-10-31T01:19:32;11.90;99.90
2967;DHT22;1493;51.496;7.210;2023-10-31T01:21:59;11.80;99.90
2967;DHT22;1493;51.496;7.210;2023-10-31T01:24:26;11.80;99.90
2967;DHT22;1493;51.496;7.210;2023-10-31T01:26:52;11.70;99.90
2967;DHT22;1493;51.496;7.210;2023-10-31T01:29:20;11.80;99.90
2967;DHT22;1493;51.496;7.210;2023-10-31T01:31:47;11.80;99.90
2967;DHT22;1493;51.496;7.210;2023-10-31T01:34:15;11.80;99.90
2967;DHT22;1493;51.496;7.210;2023-10-31T01:36:42;11.80;99.90
2967;DHT22;1493;51.496;7.210;2023-10-31T01:39:09;11.80;99.90
2967;DHT22;1493;51.496;7.210;2023-10-31T01:41:35;11.80;99.90
2967;DHT22;1493;51.496;7.210;2023-10-31T01:44:03;11.80;99.90
2967;DHT22;1493;51.496;7.210;2023-10-31T01:46:31;11.80;99.90
2967;DHT22;1493;51.496;7.210;2023-10-31T01:48:58;11.70;99.90
2967;DHT22;1493;51.496;7.210;2023-10-31T01:51:26;11.70;99.90
2967;DHT22;1493;51.496;7.210;2023-10-31T01:53:54;11.70;99.90
2967;DHT22;1493;51.496;7.210;2023-10-31T01:56:22;11.70;99.90
2967;DHT22;1493;51.496;7.210;2023-10-31T01:58:49;11.80;99.90
2967;DHT22;1493;51.496;7.210;2023-10-31T02:01:16;11.70;99.90
2967;DHT22;1493;51.496;7.210;2023-10-31T02:03:47;11.70;99.90
2967;DHT22;1493;51.496;7.210;2023-10-31T02:06:14;11.70;99.90
2967;DHT22;1493;51.496;7.210;2023-10-31T02:08:42;11.70;99.90
2967;DHT22;1493;51.496;7.210;2023-10-31T02:11:09;11.80;99.90
2967;DHT22;1493;51.496;7.210;2023-10-31T02:13:36;11.80;99.90
2967;DHT22;1493;51.496;7.210;2023-10-31T02:16:04;11.70;99.90
2967;DHT22;1493;51.496;7.210;2023-10-31T02:18:31;11.70;99.90
2967;DHT22;1493;51.496;7.210;2023-10-31T02:20:59;11.70;99.90
2967;DHT22;1493;51.496;7.210;2023-10-31T02:23:27;11.80;99.90
2967;DHT22;1493;51.496;7.210;2023-10-31T02:25:56;11.90;99.90
2967;DHT22;1493;51.496;7.210;2023-10-31T02:28:23;11.90;99.90
2967;DHT22;1493;51.496;7.210;2023-10-31T02:30:53;11.80;99.90
2967;DHT22;1493;51.496;7.210;2023-10-31T02:33:19;11.90;99.90
2967;DHT22;1493;51.496;7.210;2023-10-31T02:35:46;11.80;99.90
2967;DHT22;1493;51.496;7.210;2023-10-31T02:38:13;11.90;99.90
2967;DHT22;1493;51.496;7.210;2023-10-31T02:40:41;11.90;99.90
2967;DHT22;1493;51.496;7.210;2023-10-31T02:43:09;11.80;99.90
2967;DHT22;1493;51.496;7.210;2023-10-31T02:45:35;11.70;99.90
2967;DHT22;1493;51.496;7.210;2023-10-31T02:48:02;11.80;99.90
2967;DHT22;1493;51.496;7.210;2023-10-31T02:50:35;11.80;99.90
2967;DHT22;1493;51.496;7.210;2023-10-31T02:53:02;11.80;99.90
2967;DHT22;1493;51.496;7.210;2023-10-31T02:55:29;11.70;99.90
2967;DHT22;1493;51.496;7.210;2023-10-31T02:57:57;11.60;99.90
2967;DHT22;1493;51.496;7.210;2023-10-31T03:00:24;11.60;99.90
2967;DHT22;1493;51.496;7.210;2023-10-31T03:02:51;11.60;99.90
2967;DHT22;1493;51.496;7.210;2023-10-31T03:05:18;11.50;99.90
2967;DHT22;1493;51.496;7.210;2023-10-31T03:07:45;11.50;99.90
2967;DHT22;1493;51.496;7.210;2023-10-31T03:10:12;11.60;99.90
2967;DHT22;1493;51.496;7.210;2023-10-31T03:12:38;11.60;99.90
2967;DHT22;1493;51.496;7.210;2023-10-31T03:15:09;11.50;99.90
2967;DHT22;1493;51.496;7.210;2023-10-31T03:17:36;11.60;99.90
2967;DHT22;1493;51.496;7.210;2023-10-31T03:20:04;11.60;99.90
2967;DHT22;1493;51.496;7.210;2023-10-31T03:22:31;11.60;99.90
2967;DHT22;1493;51.496;7.210;2023-10-31T03:24:58;11.40;99.90
2967;DHT22;1493;51.496;7.210;2023-10-31T03:27:24;11.40;99.90
2967;DHT22;1493;51.496;7.210;2023-10-31T03:29:51;11.40;99.90
2967;DHT22;1493;51.496;7.210;2023-10-31T03:32:19;11.40;99.90
2967;DHT22;1493;51.496;7.210;2023-10-31T03:34:46;11.40;99.90
2967;DHT22;1493;51.496;7.210;2023-10-31T03:37:13;11.30;99.90
2967;DHT22;1493;51.496;7.210;2023-10-31T03:39:39;11.30;99.90
2967;DHT22;1493;51.496;7.210;2023-10-31T03:42:09;11.40;99.90
2967;DHT22;1493;51.496;7.210;2023-10-31T03:44:36;11.30;99.90
2967;DHT22;1493;51.496;7.210;2023-10-31T03:47:03;11.40;99.90
2967;DHT22;1493;51.496;7.210;2023-10-31T03:49:31;11.30;99.90
2967;DHT22;1493;51.496;7.210;2023-10-31T03:51:57;11.30;99.90
2967;DHT22;1493;51.496;7.210;2023-10-31T03:54:24;11.30;99.90
2967;DHT22;1493;51.496;7.210;2023-10-31T03:56:51;11.30;99.90
2967;DHT22;1493;51.496;7.210;2023-10-31T03:59:18;11.30;99.90
2967;DHT22;1493;51.496;7.210;2023-10-31T04:01:44;11.30;99.90
2967;DHT22;1493;51.496;7.210;2023-10-31T04:04:13;11.30;99.90
2967;DHT22;1493;51.496;7.210;2023-10-31T04:06:41;11.30;99.90
2967;DHT22;1493;51.496;7.210;2023-10-31T04:09:09;11.40;99.90
2967;DHT22;1493;51.496;7.210;2023-10-31T04:11:36;11.40;99.90
2967;DHT22;1493;51.496;7.210;2023-10-31T04:14:05;11.40;99.90
2967;DHT22;1493;51.496;7.210;2023-10-31T04:16:31;11.30;99.90
2967;DHT22;1493;51.496;7.210;2023-10-31T04:18:58;11.30;99.90
2967;DHT22;1493;51.496;7.210;2023-10-31T04:21:25;11.20;99.90
2967;DHT22;1493;51.496;7.210;2023-10-31T04:23:53;11.20;99.90
2967;DHT22;1493;51.496;7.210;2023-10-31T04:26:20;11.20;99.90
2967;DHT22;1493;51.496;7.210;2023-10-31T04:28:47;11.20;99.90
2967;DHT22;1493;51.496;7.210;2023-10-31T04:31:14;11.20;99.90
2967;DHT22;1493;51.496;7.210;2023-10-31T04:33:40;11.30;99.90
2967;DHT22;1493;51.496;7.210;2023-10-31T04:36:08;11.30;99.90
2967;DHT22;1493;51.496;7.210;2023-10-31T04:38:36;11.30;99.90
2967;DHT22;1493;51.496;7.210;2023-10-31T04:41:05;11.30;99.90
2967;DHT22;1493;51.496;7.210;2023-10-31T04:43:32;11.30;99.90
2967;DHT22;1493;51.496;7.210;2023-10-31T04:45:58;11.30;99.90
2967;DHT22;1493;51.496;7.210;2023-10-31T04:48:25;11.30;99.90
2967;DHT22;1493;51.496;7.210;2023-10-31T04:50:52;11.40;99.90
2967;DHT22;1493;51.496;7.210;2023-10-31T04:53:22;11.30;99.90
2967;DHT22;1493;51.496;7.210;2023-10-31T04:55:49;11.30;99.90
2967;DHT22;1493;51.496;7.210;2023-10-31T04:58:17;11.20;99.90
2967;DHT22;1493;51.496;7.210;2023-10-31T05:00:44;11.30;99.90
2967;DHT22;1493;51.496;7.210;2023-10-31T05:03:11;11.30;99.90
2967;DHT22;1493;51.496;7.210;2023-10-31T05:05:38;11.30;99.90
2967;DHT22;1493;51.496;7.210;2023-10-31T05:08:06;11.30;99.90
2967;DHT22;1493;51.496;7.210;2023-10-31T05:10:34;11.30;99.90
2967;DHT22;1493;51.496;7.210;2023-10-31T05:13:01;11.30;99.90
2967;DHT22;1493;51.496;7.210;2023-10-31T05:15:30;11.30;99.90
2967;DHT22;1493;51.496;7.210;2023-10-31T05:17:56;11.30;99.90
2967;DHT22;1493;51.496;7.210;2023-10-31T05:20:24;11.30;99.90
2967;DHT22;1493;51.496;7.210;2023-10-31T05:22:50;11.30;99.90
2967;DHT22;1493;51.496;7.210;2023-10-31T05:25:19;11.30;99.90
2967;DHT22;1493;51.496;7.210;2023-10-31T05:27:52;11.30;99.90
2967;DHT22;1493;51.496;7.210;2023-10-31T05:30:22;11.30;99.90
2967;DHT22;1493;51.496;7.210;2023-10-31T05:32:51;11.30;99.90
2967;DHT22;1493;51.496;7.210;2023-10-31T05:35:18;11.30;99.90
2967;DHT22;1493;51.496;7.210;2023-10-31T05:37:45;11.20;99.90
2967;DHT22;1493;51.496;7.210;2023-10-31T05:40:13;11.20;99.90
2967;DHT22;1493;51.496;7.210;2023-10-31T05:42:40;11.20;99.90
2967;DHT22;1493;51.496;7.210;2023-10-31T05:45:08;11.20;99.90
2967;DHT22;1493;51.496;7.210;2023-10-31T05:47:35;11.20;99.90
2967;DHT22;1493;51.496;7.210;2023-10-31T05:50:03;11.20;99.90
2967;DHT22;1493;51.496;7.210;2023-10-31T05:52:33;11.20;99.90
2967;DHT22;1493;51.496;7.210;2023-10-31T05:55:00;11.20;99.90
2967;DHT22;1493;51.496;7.210;2023-10-31T05:57:28;11.20;99.90
2967;DHT22;1493;51.496;7.210;2023-10-31T05:59:55;11.20;99.90
2967;DHT22;1493;51.496;7.210;2023-10-31T06:02:22;11.20;99.90
2967;DHT22;1493;51.496;7.210;2023-10-31T06:04:52;11.20;99.90
2967;DHT22;1493;51.496;7.210;2023-10-31T06:07:20;11.20;99.90
2967;DHT22;1493;51.496;7.210;2023-10-31T06:09:46;11.20;99.90
2967;DHT22;1493;51.496;7.210;2023-10-31T06:12:12;11.20;99.90
2967;DHT22;1493;51.496;7.210;2023-10-31T06:14:39;11.20;99.90
2967;DHT22;1493;51.496;7.210;2023-10-31T06:17:06;11.30;99.90
2967;DHT22;1493;51.496;7.210;2023-10-31T06:19:34;11.30;99.90
2967;DHT22;1493;51.496;7.210;2023-10-31T06:22:01;11.40;99.90
2967;DHT22;1493;51.496;7.210;2023-10-31T06:24:29;11.30;99.90
2967;DHT22;1493;51.496;7.210;2023-10-31T06:26:56;11.30;99.90
2967;DHT22;1493;51.496;7.210;2023-10-31T06:29:23;11.30;99.90
2967;DHT22;1493;51.496;7.210;2023-10-31T06:31:49;11.40;99.90
2967;DHT22;1493;51.496;7.210;2023-10-31T06:34:16;11.40;99.90
2967;DHT22;1493;51.496;7.210;2023-10-31T06:36:43;11.40;99.90
2967;DHT22;1493;51.496;7.210;2023-10-31T06:39:10;11.40;99.90
2967;DHT22;1493;51.496;7.210;2023-10-31T06:41:38;11.40;99.90
2967;DHT22;1493;51.496;7.210;2023-10-31T06:44:05;11.40;99.90
2967;DHT22;1493;51.496;7.210;2023-10-31T06:46:32;11.40;99.90
2967;DHT22;1493;51.496;7.210;2023-10-31T06:48:59;11.40;99.90
2967;DHT22;1493;51.496;7.210;2023-10-31T06:51:25;11.40;99.90
2967;DHT22;1493;51.496;7.210;2023-10-31T06:53:52;11.40;99.90
2967;DHT22;1493;51.496;7.210;2023-10-31T06:56:19;11.40;99.90
2967;DHT22;1493;51.496;7.210;2023-10-31T06:58:49;11.40;99.90
2967;DHT22;1493;51.496;7.210;2023-10-31T07:01:27;11.40;99.90
2967;DHT22;1493;51.496;7.210;2023-10-31T07:03:53;11.40;99.90
2967;DHT22;1493;51.496;7.210;2023-10-31T07:06:21;11.40;99.90
2967;DHT22;1493;51.496;7.210;2023-10-31T07:08:48;11.40;99.90
2967;DHT22;1493;51.496;7.210;2023-10-31T07:11:14;11.50;99.90
2967;DHT22;1493;51.496;7.210;2023-10-31T07:13:41;11.50;99.90
2967;DHT22;1493;51.496;7.210;2023-10-31T07:16:11;11.60;99.90
2967;DHT22;1493;51.496;7.210;2023-10-31T07:18:37;11.60;99.90
2967;DHT22;1493;51.496;7.210;2023-10-31T07:21:05;11.60;99.90
2967;DHT22;1493;51.496;7.210;2023-10-31T07:23:32;11.70;99.90
2967;DHT22;1493;51.496;7.210;2023-10-31T07:25:58;11.70;99.90
2967;DHT22;1493;51.496;7.210;2023-10-31T07:28:25;11.70;99.90
2967;DHT22;1493;51.496;7.210;2023-10-31T07:30:52;11.70;99.90
2967;DHT22;1493;51.496;7.210;2023-10-31T07:33:20;11.70;99.90
2967;DHT22;1493;51.496;7.210;2023-10-31T07:35:47;11.80;99.90
2967;DHT22;1493;51.496;7.210;2023-10-31T07:38:14;11.80;99.90
2967;DHT22;1493;51.496;7.210;2023-10-31T07:40:41;11.70;99.90
2967;DHT22;1493;51.496;7.210;2023-10-31T07:43:08;11.80;99.90
2967;DHT22;1493;51.496;7.210;2023-10-31T07:45:34;11.80;99.90
2967;DHT22;1493;51.496;7.210;2023-10-31T07:48:02;11.90;99.90
2967;DHT22;1493;51.496;7.210;2023-10-31T07:50:30;11.80;99.90
2967;DHT22;1493;51.496;7.210;2023-10-31T07:52:57;11.80;99.90
2967;DHT22;1493;51.496;7.210;2023-10-31T07:55:25;11.90;99.90
2967;DHT22;1493;51.496;7.210;2023-10-31T07:57:52;11.90;99.90
2967;DHT22;1493;51.496;7.210;2023-10-31T08:00:19;11.90;99.90
2967;DHT22;1493;51.496;7.210;2023-10-31T08:02:47;12.00;99.90
2967;DHT22;1493;51.496;7.210;2023-10-31T08:05:14;12.00;99.90
2967;DHT22;1493;51.496;7.210;2023-10-31T08:07:42;12.00;99.90
2967;DHT22;1493;51.496;7.210;2023-10-31T08:10:10;12.10;99.90
2967;DHT22;1493;51.496;7.210;2023-10-31T08:12:37;12.10;99.90
2967;DHT22;1493;51.496;7.210;2023-10-31T08:15:04;12.10;99.90
2967;DHT22;1493;51.496;7.210;2023-10-31T08:17:31;12.00;99.90
2967;DHT22;1493;51.496;7.210;2023-10-31T08:19:58;12.10;99.90
2967;DHT22;1493;51.496;7.210;2023-10-31T08:22:25;12.10;99.90
2967;DHT22;1493;51.496;7.210;2023-10-31T08:24:53;12.10;99.90
2967;DHT22;1493;51.496;7.210;2023-10-31T08:27:20;12.10;99.90
2967;DHT22;1493;51.496;7.210;2023-10-31T08:29:47;12.20;99.90
2967;DHT22;1493;51.496;7.210;2023-10-31T08:32:13;12.10;99.90
2967;DHT22;1493;51.496;7.210;2023-10-31T08:34:41;12.10;99.90
2967;DHT22;1493;51.496;7.210;2023-10-31T08:37:08;12.10;99.90
2967;DHT22;1493;51.496;7.210;2023-10-31T08:39:35;12.10;99.90
2967;DHT22;1493;51.496;7.210;2023-10-31T08:42:03;12.10;99.90
2967;DHT22;1493;51.496;7.210;2023-10-31T08:44:31;12.10;99.90
2967;DHT22;1493;51.496;7.210;2023-10-31T08:46:59;12.10;99.90
2967;DHT22;1493;51.496;7.210;2023-10-31T08:49:25;12.20;99.90
2967;DHT22;1493;51.496;7.210;2023-10-31T08:51:52;12.10;99.90
2967;DHT22;1493;51.496;7.210;2023-10-31T08:54:19;12.20;99.90
2967;DHT22;1493;51.496;7.210;2023-10-31T08:56:46;12.20;99.90
2967;DHT22;1493;51.496;7.210;2023-10-31T08:59:14;12.20;99.90
2967;DHT22;1493;51.496;7.210;2023-10-31T09:01:40;12.10;99.90
2967;DHT22;1493;51.496;7.210;2023-10-31T09:04:07;12.30;99.90
2967;DHT22;1493;51.496;7.210;2023-10-31T09:06:34;12.30;99.90
2967;DHT22;1493;51.496;7.210;2023-10-31T09:09:01;12.30;99.90
2967;DHT22;1493;51.496;7.210;2023-10-31T09:11:29;12.30;99.90
2967;DHT22;1493;51.496;7.210;2023-10-31T09:13:56;12.30;99.90
2967;DHT22;1493;51.496;7.210;2023-10-31T09:16:24;12.30;99.90
2967;DHT22;1493;51.496;7.210;2023-10-31T09:18:51;12.40;99.90
2967;DHT22;1493;51.496;7.210;2023-10-31T09:21:17;12.30;99.90
2967;DHT22;1493;51.496;7.210;2023-10-31T09:23:44;12.50;99.90
2967;DHT22;1493;51.496;7.210;2023-10-31T09:26:11;12.50;99.90
2967;DHT22;1493;51.496;7.210;2023-10-31T09:28:38;12.60;99.90
2967;DHT22;1493;51.496;7.210;2023-10-31T09:31:08;12.60;99.90
2967;DHT22;1493;51.496;7.210;2023-10-31T09:33:36;12.70;99.90
2967;DHT22;1493;51.496;7.210;2023-10-31T09:36:04;12.50;99.90
2967;DHT22;1493;51.496;7.210;2023-10-31T09:38:30;12.50;99.90
2967;DHT22;1493;51.496;7.210;2023-10-31T09:40:57;12.60;99.90
2967;DHT22;1493;51.496;7.210;2023-10-31T09:43:24;12.60;99.90
2967;DHT22;1493;51.496;7.210;2023-10-31T09:45:51;12.50;99.90
2967;DHT22;1493;51.496;7.210;2023-10-31T09:48:19;12.50;99.90
2967;DHT22;1493;51.496;7.210;2023-10-31T09:50:48;12.50;99.90
2967;DHT22;1493;51.496;7.210;2023-10-31T09:53:16;12.60;99.90
2967;DHT22;1493;51.496;7.210;2023-10-31T09:55:43;12.70;99.90
2967;DHT22;1493;51.496;7.210;2023-10-31T09:58:09;12.80;99.90
2967;DHT22;1493;51.496;7.210;2023-10-31T10:00:36;12.80;99.90
2967;DHT22;1493;51.496;7.210;2023-10-31T10:03:06;12.90;99.90
2967;DHT22;1493;51.496;7.210;2023-10-31T10:05:35;13.00;99.90
2967;DHT22;1493;51.496;7.210;2023-10-31T10:08:04;13.00;99.90
2967;DHT22;1493;51.496;7.210;2023-10-31T10:10:32;13.00;99.90
2967;DHT22;1493;51.496;7.210;2023-10-31T10:12:59;12.90;99.90
2967;DHT22;1493;51.496;7.210;2023-10-31T10:15:28;13.00;99.90
2967;DHT22;1493;51.496;7.210;2023-10-31T10:17:55;12.90;99.90
2967;DHT22;1493;51.496;7.210;2023-10-31T10:20:22;13.00;99.90
2967;DHT22;1493;51.496;7.210;2023-10-31T10:22:49;13.00;99.90
2967;DHT22;1493;51.496;7.210;2023-10-31T10:25:18;12.80;99.90
2967;DHT22;1493;51.496;7.210;2023-10-31T10:27:45;12.80;99.90
2967;DHT22;1493;51.496;7.210;2023-10-31T10:30:14;12.80;99.90
2967;DHT22;1493;51.496;7.210;2023-10-31T10:32:41;12.80;99.90
2967;DHT22;1493;51.496;7.210;2023-10-31T10:35:08;12.80;99.90
2967;DHT22;1493;51.496;7.210;2023-10-31T10:37:37;12.70;99.90
2967;DHT22;1493;51.496;7.210;2023-10-31T10:40:07;12.80;99.90
2967;DHT22;1493;51.496;7.210;2023-10-31T10:42:40;12.90;99.90
2967;DHT22;1493;51.496;7.210;2023-10-31T10:45:13;12.90;99.90
2967;DHT22;1493;51.496;7.210;2023-10-31T10:47:41;12.90;99.90
2967;DHT22;1493;51.496;7.210;2023-10-31T10:50:13;12.90;99.90
2967;DHT22;1493;51.496;7.210;2023-10-31T10:52:44;13.00;99.90
2967;DHT22;1493;51.496;7.210;2023-10-31T10:55:13;13.10;99.90
2967;DHT22;1493;51.496;7.210;2023-10-31T10:57:51;13.10;99.90
2967;DHT22;1493;51.496;7.210;2023-10-31T11:00:21;12.90;99.90
2967;DHT22;1493;51.496;7.210;2023-10-31T11:02:51;12.90;99.90
2967;DHT22;1493;51.496;7.210;2023-10-31T11:05:18;13.00;99.90
2967;DHT22;1493;51.496;7.210;2023-10-31T11:07:46;13.00;99.90
2967;DHT22;1493;51.496;7.210;2023-10-31T11:10:14;13.10;99.90
2967;DHT22;1493;51.496;7.210;2023-10-31T11:12:42;13.10;99.90
2967;DHT22;1493;51.496;7.210;2023-10-31T11:15:13;13.10;99.90
2967;DHT22;1493;51.496;7.210;2023-10-31T11:17:43;13.10;99.90
2967;DHT22;1493;51.496;7.210;2023-10-31T11:20:14;13.10;99.90
2967;DHT22;1493;51.496;7.210;2023-10-31T11:22:43;13.10;99.90
2967;DHT22;1493;51.496;7.210;2023-10-31T11:25:13;13.10;99.90
2967;DHT22;1493;51.496;7.210;2023-10-31T11:27:41;13.20;99.90
2967;DHT22;1493;51.496;7.210;2023-10-31T11:30:20;13.40;99.90
2967;DHT22;1493;51.496;7.210;2023-10-31T11:32:48;13.40;99.90
2967;DHT22;1493;51.496;7.210;2023-10-31T11:35:16;13.40;99.90
2967;DHT22;1493;51.496;7.210;2023-10-31T11:37:47;13.50;99.90
2967;DHT22;1493;51.496;7.210;2023-10-31T11:40:20;13.50;99.90
2967;DHT22;1493;51.496;7.210;2023-10-31T11:42:48;13.60;99.90
2967;DHT22;1493;51.496;7.210;2023-10-31T11:45:27;13.70;99.90
2967;DHT22;1493;51.496;7.210;2023-10-31T11:47:55;13.60;99.90
2967;DHT22;1493;51.496;7.210;2023-10-31T11:50:22;13.70;99.90
2967;DHT22;1493;51.496;7.210;2023-10-31T11:53:03;13.60;99.90
2967;DHT22;1493;51.496;7.210;2023-10-31T11:55:32;13.60;99.90
2967;DHT22;1493;51.496;7.210;2023-10-31T11:58:15;13.60;99.90
2967;DHT22;1493;51.496;7.210;2023-10-31T12:00:43;13.90;99.90
2967;DHT22;1493;51.496;7.210;2023-10-31T12:03:11;14.10;99.90
2967;DHT22;1493;51.496;7.210;2023-10-31T12:05:38;14.30;35.30
2967;DHT22;1493;51.496;7.210;2023-10-31T12:08:05;14.30;34.30
2967;DHT22;1493;51.496;7.210;2023-10-31T12:10:32;14.30;2.30
2967;DHT22;1493;51.496;7.210;2023-10-31T12:12:59;14.30;40.20
2967;DHT22;1493;51.496;7.210;2023-10-31T12:15:26;14.30;29.60
2967;DHT22;1493;51.496;7.210;2023-10-31T12:17:58;14.30;83.50
2967;DHT22;1493;51.496;7.210;2023-10-31T12:20:25;14.10;2.40
2967;DHT22;1493;51.496;7.210;2023-10-31T12:23:02;14.00;64.20
2967;DHT22;1493;51.496;7.210;2023-10-31T12:25:30;13.90;62.30
2967;DHT22;1493;51.496;7.210;2023-10-31T12:28:00;14.00;99.90
2967;DHT22;1493;51.496;7.210;2023-10-31T12:30:27;14.10;65.80
2967;DHT22;1493;51.496;7.210;2023-10-31T12:32:55;14.10;13.90
2967;DHT22;1493;51.496;7.210;2023-10-31T12:35:25;14.00;48.10
2967;DHT22;1493;51.496;7.210;2023-10-31T12:37:53;14.20;43.20
2967;DHT22;1493;51.496;7.210;2023-10-31T12:40:21;14.20;34.50
2967;DHT22;1493;51.496;7.210;2023-10-31T12:42:49;14.20;20.40
2967;DHT22;1493;51.496;7.210;2023-10-31T12:45:17;14.10;14.30
2967;DHT22;1493;51.496;7.210;2023-10-31T12:47:44;14.00;33.00
2967;DHT22;1493;51.496;7.210;2023-10-31T12:50:13;13.90;18.10
2967;DHT22;1493;51.496;7.210;2023-10-31T12:52:51;13.90;16.60
2967;DHT22;1493;51.496;7.210;2023-10-31T12:55:19;13.80;57.70
2967;DHT22;1493;51.496;7.210;2023-10-31T12:57:47;13.90;33.50
2967;DHT22;1493;51.496;7.210;2023-10-31T13:00:15;13.80;40.90
2967;DHT22;1493;51.496;7.210;2023-10-31T13:02:44;13.90;55.40
2967;DHT22;1493;51.496;7.210;2023-10-31T13:05:15;13.90;19.00
2967;DHT22;1493;51.496;7.210;2023-10-31T13:07:50;14.20;34.50
2967;DHT22;1493;51.496;7.210;2023-10-31T13:10:18;14.30;1.00
2967;DHT22;1493;51.496;7.210;2023-10-31T13:12:45;14.30;1.00
2967;DHT22;1493;51.496;7.210;2023-10-31T13:15:15;14.60;30.00
2967;DHT22;1493;51.496;7.210;2023-10-31T13:17:42;15.50;1.00
2967;DHT22;1493;51.496;7.210;2023-10-31T13:20:10;16.00;1.00
2967;DHT22;1493;51.496;7.210;2023-10-31T13:22:39;16.80;99.90
2967;DHT22;1493;51.496;7.210;2023-10-31T13:25:08;17.30;1.00
2967;DHT22;1493;51.496;7.210;2023-10-31T13:27:37;17.50;9.00
2967;DHT22;1493;51.496;7.210;2023-10-31T13:30:05;17.20;1.00
2967;DHT22;1493;51.496;7.210;2023-10-31T13:32:32;16.80;1.00
2967;DHT22;1493;51.496;7.210;2023-10-31T13:34:59;16.50;99.90
2967;DHT22;1493;51.496;7.210;2023-10-31T13:37:26;16.30;99.90
2967;DHT22;1493;51.496;7.210;2023-10-31T13:39:53;16.20;80.20
2967;DHT22;1493;51.496;7.210;2023-10-31T13:42:21;16.10;1.00
2967;DHT22;1493;51.496;7.210;2023-10-31T13:44:48;15.90;99.90
2967;DHT22;1493;51.496;7.210;2023-10-31T13:47:14;15.90;1.00
2967;DHT22;1493;51.496;7.210;2023-10-31T13:49:41;16.20;99.90
2967;DHT22;1493;51.496;7.210;2023-10-31T13:52:08;16.20;99.90
2967;DHT22;1493;51.496;7.210;2023-10-31T13:54:35;16.00;86.00
2967;DHT22;1493;51.496;7.210;2023-10-31T13:57:02;15.80;1.00
2967;DHT22;1493;51.496;7.210;2023-10-31T13:59:30;15.70;99.90
2967;DHT22;1493;51.496;7.210;2023-10-31T14:01:58;15.20;99.90
2967;DHT22;1493;51.496;7.210;2023-10-31T14:04:25;14.80;1.00
2967;DHT22;1493;51.496;7.210;2023-10-31T14:06:51;14.60;1.00
2967;DHT22;1493;51.496;7.210;2023-10-31T14:09:18;14.50;1.00
2967;DHT22;1493;51.496;7.210;2023-10-31T14:11:47;14.40;1.00
2967;DHT22;1493;51.496;7.210;2023-10-31T14:14:13;14.20;1.00
2967;DHT22;1493;51.496;7.210;2023-10-31T14:16:42;14.20;1.00
2967;DHT22;1493;51.496;7.210;2023-10-31T14:19:10;14.20;1.00
2967;DHT22;1493;51.496;7.210;2023-10-31T14:21:38;14.00;1.00
2967;DHT22;1493;51.496;7.210;2023-10-31T14:24:06;14.00;1.00
2967;DHT22;1493;51.496;7.210;2023-10-31T14:26:34;14.00;1.00
2967;DHT22;1493;51.496;7.210;2023-10-31T14:29:02;14.00;1.00
2967;DHT22;1493;51.496;7.210;2023-10-31T14:31:28;14.00;1.00
2967;DHT22;1493;51.496;7.210;2023-10-31T14:33:57;14.00;1.00
2967;DHT22;1493;51.496;7.210;2023-10-31T14:36:24;14.10;1.00
2967;DHT22;1493;51.496;7.210;2023-10-31T14:38:51;14.20;1.40
2967;DHT22;1493;51.496;7.210;2023-10-31T14:41:18;14.20;41.30
2967;DHT22;1493;51.496;7.210;2023-10-31T14:43:44;14.00;1.00
2967;DHT22;1493;51.496;7.210;2023-10-31T14:46:11;13.90;1.00
2967;DHT22;1493;51.496;7.210;2023-10-31T14:48:40;13.90;28.70
2967;DHT22;1493;51.496;7.210;2023-10-31T14:51:08;13.90;24.80
2967;DHT22;1493;51.496;7.210;2023-10-31T14:53:35;13.80;7.00
2967;DHT22;1493;51.496;7.210;2023-10-31T14:56:02;13.80;36.50
2967;DHT22;1493;51.496;7.210;2023-10-31T14:58:31;13.70;36.50
2967;DHT22;1493;51.496;7.210;2023-10-31T15:00:58;13.70;99.90
2967;DHT22;1493;51.496;7.210;2023-10-31T15:03:27;13.60;52.40
2967;DHT22;1493;51.496;7.210;2023-10-31T15:05:56;13.60;93.70
2967;DHT22;1493;51.496;7.210;2023-10-31T15:08:24;13.50;99.90
2967;DHT22;1493;51.496;7.210;2023-10-31T15:10:52;13.50;99.90
2967;DHT22;1493;51.496;7.210;2023-10-31T15:13:20;13.40;99.90
2967;DHT22;1493;51.496;7.210;2023-10-31T15:15:48;13.40;99.90
2967;DHT22;1493;51.496;7.210;2023-10-31T15:18:15;13.20;99.90
2967;DHT22;1493;51.496;7.210;2023-10-31T15:20:44;13.20;99.90
2967;DHT22;1493;51.496;7.210;2023-10-31T15:23:12;13.20;99.90
2967;DHT22;1493;51.496;7.210;2023-10-31T15:25:41;13.20;99.90
2967;DHT22;1493;51.496;7.210;2023-10-31T15:28:08;13.20;99.90
2967;DHT22;1493;51.496;7.210;2023-10-31T15:33:23;13.00;99.90
2967;DHT22;1493;51.496;7.210;2023-10-31T15:35:50;12.90;99.90
2967;DHT22;1493;51.496;7.210;2023-10-31T15:38:17;12.90;99.90
2967;DHT22;1493;51.496;7.210;2023-10-31T15:40:46;12.70;99.90
2967;DHT22;1493;51.496;7.210;2023-10-31T15:43:13;12.60;99.90
2967;DHT22;1493;51.496;7.210;2023-10-31T15:45:40;12.60;99.90
2967;DHT22;1493;51.496;7.210;2023-10-31T15:48:10;12.50;99.90
2967;DHT22;1493;51.496;7.210;2023-10-31T15:50:39;12.50;99.90
2967;DHT22;1493;51.496;7.210;2023-10-31T15:53:06;12.60;99.90
2967;DHT22;1493;51.496;7.210;2023-10-31T15:55:33;12.50;99.90
2967;DHT22;1493;51.496;7.210;2023-10-31T15:58:01;12.50;99.90
2967;DHT22;1493;51.496;7.210;2023-10-31T16:00:31;12.40;99.90
2967;DHT22;1493;51.496;7.210;2023-10-31T16:02:58;12.50;99.90
2967;DHT22;1493;51.496;7.210;2023-10-31T16:05:25;12.50;99.90
2967;DHT22;1493;51.496;7.210;2023-10-31T16:07:51;12.50;99.90